Time;durP1;ratioP1;P1;durP2;ratioP2;P2;SDS_P1;SDS_P2;PMS_P1;PMS_P2;Temp;Humidity;BMP_temperature;BMP_pressure;BME280_temperature;BME280_humidity;BME280_pressure;Samples;Min_cycle;Max_cycle;Signal;HPM_P1;HPM_P2
2022/06/18 00:00:14;;;;;;;;;15.67;14.33;;;;;30.82;31.98;101639.25;5056156;28;47202;-48
2022/06/18 00:02:41;;;;;;;;;16.67;13.67;;;;;30.78;32.29;101634.31;5054512;28;45321;-49
2022/06/18 00:05:07;;;;;;;;;19.00;14.67;;;;;30.74;32.71;101633.88;5056179;28;45397;-50
2022/06/18 00:07:38;;;;;;;;;19.00;17.33;;;;;30.71;32.21;101625.16;5053304;28;45524;-48
2022/06/18 00:10:05;;;;;;;;;16.33;16.33;;;;;30.67;32.54;101625.53;5046666;28;45581;-49
2022/06/18 00:15:17;;;;;;;;;17.00;16.33;;;;;30.58;32.73;101617.59;5062480;28;45540;-51
2022/06/18 00:17:43;;;;;;;;;16.00;15.33;;;;;30.57;32.78;101618.63;5059367;27;45460;-49
2022/06/18 00:20:11;;;;;;;;;16.33;14.67;;;;;30.55;32.65;101620.69;5063128;28;45351;-48
2022/06/18 00:22:36;;;;;;;;;14.00;14.00;;;;;30.51;33.29;101615.59;5064892;27;45316;-49
2022/06/18 00:25:10;;;;;;;;;19.33;18.33;;;;;30.49;33.24;101622.31;5059203;28;45293;-51
2022/06/18 00:27:35;;;;;;;;;12.67;11.33;;;;;30.46;33.20;101620.81;5059303;28;45636;-50
2022/06/18 00:30:01;;;;;;;;;19.33;19.00;;;;;30.44;33.04;101616.50;5064407;28;73609;-49
2022/06/18 00:32:26;;;;;;;;;15.33;14.33;;;;;30.41;33.59;101617.75;5062988;28;45607;-49
2022/06/18 00:34:51;;;;;;;;;19.67;14.67;;;;;30.39;33.51;101616.22;5067623;27;68877;-50
2022/06/18 00:37:19;;;;;;;;;14.67;14.67;;;;;30.35;33.63;101627.59;5055702;28;45425;-50
2022/06/18 00:39:45;;;;;;;;;15.33;13.67;;;;;30.34;33.72;101625.03;5056469;28;46963;-52
2022/06/18 00:42:23;;;;;;;;;15.67;15.00;;;;;30.29;33.81;101622.84;5070050;28;45208;-53
2022/06/18 00:44:54;;;;;;;;;15.33;15.33;;;;;30.27;33.45;101622.19;5064548;27;45361;-48
2022/06/18 00:47:43;;;;;;;;;12.33;12.33;;;;;30.24;33.51;101619.81;5062144;28;45624;-50
2022/06/18 00:50:19;;;;;;;;;14.67;14.00;;;;;30.20;33.69;101623.97;5059956;28;46386;-49
2022/06/18 00:52:53;;;;;;;;;15.00;14.67;;;;;30.17;33.64;101627.09;5066738;28;46000;-49
2022/06/18 00:55:29;;;;;;;;;15.67;13.67;;;;;30.16;33.45;101628.13;5048129;28;45308;-52
2022/06/18 00:58:00;;;;;;;;;13.67;12.67;;;;;30.14;33.13;101622.84;5053950;28;45407;-50
2022/06/18 01:00:32;;;;;;;;;14.33;11.33;;;;;30.13;33.14;101626.63;5061061;28;47190;-50
2022/06/18 01:02:58;;;;;;;;;14.00;14.00;;;;;30.12;33.26;101621.31;5060040;28;45389;-49
2022/06/18 01:05:26;;;;;;;;;12.67;12.67;;;;;30.08;33.25;101625.44;5065418;28;45282;-51
2022/06/18 01:07:58;;;;;;;;;12.67;12.67;;;;;30.05;33.74;101625.84;5065557;28;45450;-49
2022/06/18 01:10:33;;;;;;;;;12.00;12.00;;;;;30.04;33.28;101630.47;5054057;28;46517;-51
2022/06/18 01:13:10;;;;;;;;;13.00;12.00;;;;;30.03;33.47;101635.09;5064007;28;45391;-49
2022/06/18 01:15:37;;;;;;;;;12.67;12.67;;;;;30.02;33.29;101622.44;5064569;28;45445;-48
2022/06/18 01:18:04;;;;;;;;;12.33;11.33;;;;;30.02;33.43;101627.06;5050129;28;45484;-49
2022/06/18 01:20:32;;;;;;;;;10.00;10.00;;;;;30.00;33.13;101618.19;5064902;28;46353;-48
2022/06/18 01:23:14;;;;;;;;;12.67;12.67;;;;;29.97;33.51;101619.41;5079329;27;45677;-49
2022/06/18 01:25:40;;;;;;;;;12.67;12.67;;;;;29.96;33.49;101619.56;5063215;28;45519;-49
2022/06/18 01:28:06;;;;;;;;;14.33;11.67;;;;;29.94;33.56;101613.44;5055899;28;45494;-49
2022/06/18 01:30:36;;;;;;;;;12.67;11.00;;;;;29.91;33.70;101614.66;5045233;28;46158;-48
2022/06/18 01:33:02;;;;;;;;;15.00;14.00;;;;;29.90;33.75;101614.84;5069778;28;45455;-48
2022/06/18 01:35:28;;;;;;;;;15.00;13.00;;;;;29.89;33.55;101615.88;5058050;28;45751;-48
2022/06/18 01:37:53;;;;;;;;;15.33;15.33;;;;;29.85;34.08;101618.94;5056853;28;45503;-48
2022/06/18 01:40:30;;;;;;;;;18.67;15.33;;;;;29.82;33.87;101618.47;5061508;28;46024;-49
2022/06/18 01:42:57;;;;;;;;;17.67;16.00;;;;;29.80;33.92;101607.72;5080896;27;45543;-51
2022/06/18 01:45:25;;;;;;;;;17.00;17.00;;;;;29.78;34.14;101604.28;5055663;27;45320;-49
2022/06/18 01:48:20;;;;;;;;;18.00;18.00;;;;;29.74;34.38;101602.97;5061517;28;45784;-48
2022/06/18 01:50:54;;;;;;;;;22.00;20.67;;;;;29.72;34.85;101596.78;5079745;27;46230;-49
2022/06/18 01:53:24;;;;;;;;;20.67;19.00;;;;;29.69;34.84;101594.44;5071112;27;45712;-49
2022/06/18 01:55:53;;;;;;;;;20.67;19.00;;;;;29.67;35.16;101594.63;5061918;28;45406;-50
2022/06/18 01:58:28;;;;;;;;;19.67;19.67;;;;;29.65;35.17;101590.38;5064768;28;45486;-49
2022/06/18 02:00:57;;;;;;;;;18.33;18.33;;;;;29.60;35.05;101601.03;5065049;28;45375;-49
2022/06/18 02:03:22;;;;;;;;;20.00;20.00;;;;;29.58;35.23;101600.34;5053675;28;45443;-51
2022/06/18 02:05:48;;;;;;;;;20.67;19.67;;;;;29.56;35.30;101592.31;5048625;28;50319;-52
2022/06/18 02:08:16;;;;;;;;;22.33;19.33;;;;;29.51;35.73;101592.00;5059430;28;67609;-50
2022/06/18 02:10:52;;;;;;;;;19.33;19.33;;;;;29.48;35.76;101593.22;5053797;27;46304;-49
2022/06/18 02:13:20;;;;;;;;;17.33;17.00;;;;;29.47;35.66;101590.69;5053494;28;45323;-52
2022/06/18 02:15:46;;;;;;;;;15.00;14.33;;;;;29.45;35.73;101592.72;5057375;28;45497;-49
2022/06/18 02:18:14;;;;;;;;;19.33;18.33;;;;;29.43;35.62;101592.09;5058403;28;61298;-50
2022/06/18 02:20:43;;;;;;;;;17.67;15.67;;;;;29.40;35.72;101585.06;5051939;28;46562;-50
2022/06/18 02:23:09;;;;;;;;;19.67;18.67;;;;;29.37;35.53;101588.16;5060263;28;45324;-53
2022/06/18 02:25:35;;;;;;;;;16.33;15.67;;;;;29.34;35.44;101594.84;5058781;28;45281;-51
2022/06/18 02:28:03;;;;;;;;;14.33;13.67;;;;;29.33;35.22;101587.69;5062880;28;45577;-52
2022/06/18 02:30:31;;;;;;;;;16.33;15.33;;;;;29.31;35.02;101586.19;5067882;28;46292;-49
2022/06/18 02:33:02;;;;;;;;;17.00;15.33;;;;;29.29;35.32;101586.34;5061157;28;45383;-53
2022/06/18 02:35:30;;;;;;;;;19.00;18.67;;;;;29.25;35.14;101584.97;5053299;28;45389;-52
2022/06/18 02:37:56;;;;;;;;;22.00;18.33;;;;;29.20;35.15;101573.69;5055390;28;45479;-49
2022/06/18 02:40:24;;;;;;;;;16.33;15.67;;;;;29.16;35.15;101567.72;5046271;28;46100;-53
2022/06/18 02:42:56;;;;;;;;;23.00;16.00;;;;;29.14;35.25;101558.84;5065458;28;45476;-51
2022/06/18 02:45:23;;;;;;;;;18.33;16.33;;;;;29.13;35.25;101553.56;5060804;28;45665;-49
2022/06/18 02:47:50;;;;;;;;;17.33;16.33;;;;;29.11;35.56;101548.28;5068434;27;45279;-51
2022/06/18 02:50:17;;;;;;;;;18.00;18.00;;;;;29.10;35.22;101545.69;5053771;28;46315;-50
2022/06/18 02:52:46;;;;;;;;;16.33;16.33;;;;;29.09;35.93;101544.84;5058326;28;45304;-50
2022/06/18 02:55:35;;;;;;;;;15.00;15.00;;;;;29.08;35.57;101548.63;5054385;28;45407;-48
2022/06/18 02:58:17;;;;;;;;;18.00;17.33;;;;;29.06;35.69;101539.75;5069212;28;45616;-51
2022/06/18 03:00:46;;;;;;;;;18.67;18.00;;;;;29.04;35.78;101539.06;5054516;28;46157;-49
2022/06/18 03:03:13;;;;;;;;;18.00;15.67;;;;;29.01;35.80;101532.06;5053773;28;45442;-53
2022/06/18 03:05:38;;;;;;;;;18.50;18.50;;;;;28.98;35.86;101526.09;5054858;28;45360;-50
2022/06/18 03:08:04;;;;;;;;;19.33;19.33;;;;;28.97;35.98;101528.00;5057495;28;45376;-52
2022/06/18 03:13:18;;;;;;;;;17.33;16.00;;;;;28.92;36.21;101521.38;5055516;28;45385;-50
2022/06/18 03:15:47;;;;;;;;;21.33;18.33;;;;;28.87;36.18;101514.53;5057271;28;45418;-49
2022/06/18 03:18:13;;;;;;;;;17.00;16.00;;;;;28.84;36.58;101503.94;5054124;28;45345;-50
2022/06/18 03:20:59;;;;;;;;;15.00;14.67;;;;;28.82;36.45;101499.69;5051341;28;46399;-50
2022/06/18 03:23:25;;;;;;;;;16.00;15.33;;;;;28.80;36.90;101499.88;5057313;28;45561;-49
2022/06/18 03:25:52;;;;;;;;;16.67;16.00;;;;;28.77;36.77;101500.22;5057155;28;45417;-51
2022/06/18 03:28:18;;;;;;;;;16.00;16.00;;;;;28.75;36.50;101493.22;5055039;28;45439;-50
2022/06/18 03:30:43;;;;;;;;;17.33;16.33;;;;;28.72;36.94;101497.16;5060435;28;47166;-49
2022/06/18 03:33:09;;;;;;;;;19.33;16.00;;;;;28.69;36.75;101494.81;5053918;28;71850;-50
2022/06/18 03:35:35;;;;;;;;;17.33;17.33;;;;;28.67;36.37;101494.16;5049764;28;45420;-49
2022/06/18 03:38:01;;;;;;;;;17.67;16.67;;;;;28.65;36.48;101493.44;5060453;28;45665;-49
2022/06/18 03:40:26;;;;;;;;;17.00;15.33;;;;;28.64;36.75;101489.00;5051085;28;46137;-49
2022/06/18 03:42:52;;;;;;;;;18.00;17.33;;;;;28.62;36.81;101491.06;5060665;28;71260;-52
2022/06/18 03:45:18;;;;;;;;;17.00;16.00;;;;;28.58;36.89;101490.56;5052156;28;45383;-51
2022/06/18 03:47:44;;;;;;;;;18.00;17.33;;;;;28.57;36.90;101490.75;5049940;28;45348;-52
2022/06/18 03:50:15;;;;;;;;;19.00;18.00;;;;;28.53;36.85;101493.81;5057111;28;45451;-52
2022/06/18 03:52:41;;;;;;;;;17.33;16.33;;;;;28.50;36.67;101487.84;5060795;28;45390;-50
2022/06/18 03:55:08;;;;;;;;;18.33;17.67;;;;;28.48;37.25;101493.50;5064402;28;68404;-49
2022/06/18 03:57:33;;;;;;;;;15.33;15.33;;;;;28.46;36.99;101492.84;5062580;28;45498;-50
2022/06/18 03:59:59;;;;;;;;;18.00;15.00;;;;;28.45;37.15;101490.31;5055585;28;72870;-51
2022/06/18 04:02:24;;;;;;;;;17.67;16.33;;;;;28.41;37.14;101488.94;5047188;28;45382;-49
2022/06/18 04:04:49;;;;;;;;;20.00;17.00;;;;;28.38;37.26;101493.75;5063891;28;45433;-48
2022/06/18 04:07:18;;;;;;;;;17.33;17.00;;;;;28.36;37.24;101486.75;5060736;28;69963;-48
2022/06/18 04:09:43;;;;;;;;;17.67;16.67;;;;;28.35;37.45;101487.78;5051024;28;46072;-51
2022/06/18 04:12:09;;;;;;;;;14.67;13.67;;;;;28.34;37.76;101483.31;5045210;28;72413;-48
2022/06/18 04:14:35;;;;;;;;;16.00;16.00;;;;;28.31;37.74;101481.78;5061407;28;45281;-48
2022/06/18 04:17:02;;;;;;;;;17.67;16.67;;;;;28.30;37.52;101476.50;5061382;28;45532;-48
2022/06/18 04:19:27;;;;;;;;;16.00;15.00;;;;;28.28;37.68;101481.28;5051219;28;46342;-48
2022/06/18 04:21:53;;;;;;;;;16.33;15.00;;;;;28.26;37.56;101476.00;5062652;28;45503;-49
2022/06/18 04:24:18;;;;;;;;;16.00;12.00;;;;;28.25;38.04;101470.72;5067831;28;45444;-49
2022/06/18 04:26:44;;;;;;;;;16.33;16.00;;;;;28.22;37.50;101477.41;5067964;27;69383;-48
2022/06/18 04:29:09;;;;;;;;;15.00;13.67;;;;;28.20;37.84;101474.00;5059989;28;45501;-49
2022/06/18 04:31:34;;;;;;;;;16.00;15.33;;;;;28.18;37.87;101476.03;5052969;28;61999;-48
2022/06/18 04:34:00;;;;;;;;;18.33;18.33;;;;;28.17;37.55;101471.59;5050428;28;45433;-48
2022/06/18 04:36:33;;;;;;;;;16.00;15.00;;;;;28.16;37.61;101473.50;5071736;27;45338;-48
2022/06/18 04:38:59;;;;;;;;;17.67;14.00;;;;;28.15;37.50;101474.53;5066001;28;47031;-51
2022/06/18 04:41:25;;;;;;;;;15.00;12.33;;;;;28.14;37.30;101481.00;5062655;28;45342;-49
2022/06/18 04:43:50;;;;;;;;;16.67;13.33;;;;;28.13;37.49;101487.50;5063311;28;45283;-50
2022/06/18 04:46:16;;;;;;;;;14.33;14.33;;;;;28.11;37.89;101486.84;5059584;28;63218;-49
2022/06/18 04:48:41;;;;;;;;;14.67;14.33;;;;;28.08;37.28;101486.34;5069095;28;68629;-52
2022/06/18 04:51:06;;;;;;;;;18.33;15.67;;;;;28.05;37.84;101490.28;5061099;28;45283;-49
2022/06/18 04:53:32;;;;;;;;;14.33;12.67;;;;;28.03;37.71;101493.19;5063455;28;69415;-49
2022/06/18 04:55:57;;;;;;;;;13.67;13.33;;;;;28.02;37.59;101487.91;5059846;28;45584;-49
2022/06/18 04:58:22;;;;;;;;;16.00;14.00;;;;;28.00;37.52;101484.44;5061339;28;46254;-49
2022/06/18 05:00:48;;;;;;;;;15.67;14.00;;;;;27.99;37.97;101491.81;5064756;28;67535;-49
2022/06/18 05:03:18;;;;;;;;;14.00;13.67;;;;;28.00;38.15;101481.72;5059385;28;45843;-49
2022/06/18 05:05:43;;;;;;;;;14.67;14.00;;;;;28.01;38.24;101492.47;5064684;28;45368;-49
2022/06/18 05:08:08;;;;;;;;;13.33;13.00;;;;;28.02;38.24;101482.44;5062844;28;47215;-49
2022/06/18 05:10:34;;;;;;;;;15.00;14.33;;;;;28.03;38.02;101484.13;5058746;28;45369;-50
2022/06/18 05:13:00;;;;;;;;;14.00;14.00;;;;;28.03;37.98;101474.06;5055557;28;64235;-49
2022/06/18 05:15:25;;;;;;;;;16.00;16.00;;;;;28.05;38.42;101480.19;5065450;28;45232;-49
2022/06/18 05:17:51;;;;;;;;;14.00;14.00;;;;;28.06;38.29;101481.88;5060455;28;59201;-49
2022/06/18 05:20:21;;;;;;;;;13.00;13.00;;;;;28.05;38.36;101477.44;5063866;28;67572;-49
2022/06/18 05:22:47;;;;;;;;;14.33;13.33;;;;;28.06;38.37;101476.41;5065699;27;45700;-48
2022/06/18 05:25:13;;;;;;;;;15.00;15.00;;;;;28.06;38.60;101470.97;5056994;28;67222;-50
2022/06/18 05:27:38;;;;;;;;;14.00;12.67;;;;;28.09;38.39;101471.66;5059791;28;46456;-51
2022/06/18 05:30:06;;;;;;;;;12.67;12.00;;;;;28.10;38.62;101468.72;5066891;27;45322;-51
2022/06/18 05:32:31;;;;;;;;;11.33;10.67;;;;;28.11;38.44;101467.72;5057106;28;45518;-49
2022/06/18 05:34:56;;;;;;;;;17.00;14.00;;;;;28.13;38.23;101468.38;5069443;28;49448;-53
2022/06/18 05:37:25;;;;;;;;;12.67;12.67;;;;;28.14;38.82;101461.88;5053223;28;70447;-48
2022/06/18 05:39:51;;;;;;;;;15.67;12.33;;;;;28.16;38.38;101468.03;5052380;28;45281;-48
2022/06/18 05:42:16;;;;;;;;;16.00;13.00;;;;;28.17;38.33;101456.06;5057510;28;63047;-51
2022/06/18 05:44:42;;;;;;;;;15.67;12.67;;;;;28.19;38.22;101456.72;5053661;28;45444;-52
2022/06/18 05:47:25;;;;;;;;;13.33;11.67;;;;;28.23;38.18;101457.22;5059702;28;45450;-50
2022/06/18 05:49:51;;;;;;;;;13.00;12.00;;;;;28.30;38.01;101446.44;5059675;28;45303;-49
2022/06/18 05:52:17;;;;;;;;;15.33;14.67;;;;;28.34;38.44;101453.25;5052546;28;45446;-50
2022/06/18 05:54:43;;;;;;;;;14.33;13.00;;;;;28.38;38.07;101447.25;5052046;28;45305;-52
2022/06/18 05:57:08;;;;;;;;;15.00;14.67;;;;;28.41;37.63;101450.63;5056392;28;45704;-50
2022/06/18 05:59:34;;;;;;;;;11.67;11.67;;;;;28.43;37.85;101445.84;5048940;28;45268;-50
2022/06/18 06:01:59;;;;;;;;;14.33;14.33;;;;;28.44;38.51;101448.41;5059046;28;45509;-49
2022/06/18 06:04:26;;;;;;;;;15.00;12.00;;;;;28.47;38.46;101447.19;5058393;28;66115;-49
2022/06/18 06:06:52;;;;;;;;;15.00;14.00;;;;;28.49;38.13;101445.13;5055841;28;45441;-50
2022/06/18 06:12:03;;;;;;;;;13.67;12.00;;;;;28.53;38.17;101444.59;5052216;28;45301;-49
2022/06/18 06:14:28;;;;;;;;;16.33;11.67;;;;;28.58;38.18;101445.91;5052518;28;45528;-51
2022/06/18 06:16:54;;;;;;;;;13.33;13.33;;;;;28.63;38.21;101444.38;5049466;28;45205;-52
2022/06/18 06:19:19;;;;;;;;;15.67;14.33;;;;;28.68;38.42;101450.19;5061054;27;45702;-49
2022/06/18 06:21:44;;;;;;;;;12.00;12.00;;;;;28.74;38.17;101439.56;5056648;28;67472;-53
2022/06/18 06:24:10;;;;;;;;;16.33;14.33;;;;;28.78;38.12;101440.88;5048579;28;65955;-51
2022/06/18 06:26:35;;;;;;;;;12.67;12.00;;;;;28.83;38.13;101430.25;5059135;28;46037;-50
2022/06/18 06:29:02;;;;;;;;;13.33;12.33;;;;;28.86;37.78;101441.69;5060818;28;45731;-49
2022/06/18 06:31:27;;;;;;;;;13.67;13.00;;;;;28.90;37.74;101431.19;5055294;28;45294;-52
2022/06/18 06:33:52;;;;;;;;;14.33;12.33;;;;;28.96;37.94;101441.44;5051594;27;68657;-48
2022/06/18 06:36:18;;;;;;;;;11.67;11.67;;;;;29.03;37.86;101436.94;5049420;28;73974;-49
2022/06/18 06:38:44;;;;;;;;;13.00;13.00;;;;;29.11;37.83;101441.50;5047336;28;45346;-51
2022/06/18 06:41:13;;;;;;;;;12.67;12.67;;;;;29.19;37.53;101438.66;5059101;28;45333;-49
2022/06/18 06:43:38;;;;;;;;;13.33;12.67;;;;;29.29;37.37;101443.06;5058080;28;45681;-51
2022/06/18 06:46:03;;;;;;;;;14.67;14.67;;;;;29.38;36.92;101441.94;5051787;28;46126;-49
2022/06/18 06:48:29;;;;;;;;;11.33;10.00;;;;;29.44;37.10;101443.94;5061707;28;73003;-51
2022/06/18 06:50:54;;;;;;;;;11.00;11.00;;;;;29.53;36.65;101444.72;5043667;28;45295;-50
2022/06/18 06:53:20;;;;;;;;;14.00;13.00;;;;;29.63;36.65;101444.44;5046914;28;45613;-49
2022/06/18 06:58:29;;;;;;;;;10.67;10.67;;;;;29.85;36.49;101450.88;5065561;28;45244;-53
2022/06/18 07:00:57;;;;;;;;;13.00;12.00;;;;;29.97;36.35;101448.53;5050198;28;45441;-52
2022/06/18 07:03:27;;;;;;;;;13.33;13.33;;;;;30.08;36.32;101447.19;5057942;28;46525;-53
2022/06/18 07:05:53;;;;;;;;;15.33;14.00;;;;;30.18;36.18;101440.41;5052976;28;46950;-53
2022/06/18 07:08:19;;;;;;;;;14.33;11.67;;;;;30.32;36.21;101440.56;5059029;28;45428;-52
2022/06/18 07:10:48;;;;;;;;;13.00;13.00;;;;;30.45;36.19;101440.72;5052336;28;45749;-52
2022/06/18 07:13:13;;;;;;;;;12.00;12.00;;;;;30.60;35.75;101432.47;5058063;28;45509;-53
2022/06/18 07:15:39;;;;;;;;;13.00;13.00;;;;;30.74;35.44;101428.00;5039892;28;46120;-52
2022/06/18 07:18:12;;;;;;;;;13.33;13.00;;;;;30.89;35.44;101435.31;5051837;28;45524;-53
2022/06/18 07:20:37;;;;;;;;;12.00;10.67;;;;;31.04;35.06;101430.56;5076170;27;45577;-54
2022/06/18 07:23:03;;;;;;;;;13.67;13.33;;;;;31.20;34.62;101436.88;5059091;28;66100;-50
2022/06/18 07:25:28;;;;;;;;;10.67;10.67;;;;;31.34;34.48;101431.28;5049991;28;73229;-53
2022/06/18 07:27:54;;;;;;;;;12.00;12.00;;;;;31.51;34.10;101437.34;5051134;28;45695;-53
2022/06/18 07:30:20;;;;;;;;;13.67;13.67;;;;;31.71;33.78;101438.53;5066243;28;45375;-54
2022/06/18 07:32:47;;;;;;;;;12.67;12.67;;;;;31.90;33.59;101436.97;5065994;28;45384;-55
2022/06/18 07:35:24;;;;;;;;;17.00;15.00;;;;;32.12;33.93;101441.31;5055790;28;45426;-51
2022/06/18 07:37:50;;;;;;;;;13.33;13.00;;;;;32.40;33.61;101432.13;5051312;28;45428;-53
2022/06/18 07:40:16;;;;;;;;;15.00;13.33;;;;;32.68;32.92;101431.13;5061110;28;45385;-53
2022/06/18 07:42:43;;;;;;;;;11.00;9.67;;;;;32.97;31.90;101429.09;5060274;28;45557;-54
2022/06/18 07:45:28;;;;;;;;;11.67;11.00;;;;;33.28;31.89;101423.00;5063810;28;46837;-53
2022/06/18 07:47:53;;;;;;;;;12.67;12.67;;;;;33.57;31.56;101426.34;5060532;28;56332;-54
2022/06/18 07:50:20;;;;;;;;;14.33;12.00;;;;;33.87;31.40;101422.25;5059550;28;68229;-53
2022/06/18 07:52:46;;;;;;;;;12.67;12.00;;;;;34.19;30.82;101416.81;5060682;28;45622;-53
2022/06/18 07:55:18;;;;;;;;;13.00;12.67;;;;;34.53;29.90;101418.34;5059632;28;64999;-52
2022/06/18 07:57:44;;;;;;;;;17.67;17.67;;;;;34.92;29.39;101415.56;5068511;28;45303;-53
2022/06/18 08:00:16;;;;;;;;;12.00;12.00;;;;;35.29;28.24;101410.13;5065097;28;45497;-54
2022/06/18 08:02:42;;;;;;;;;14.00;12.00;;;;;35.66;27.33;101409.38;5060384;28;45584;-52
2022/06/18 08:05:08;;;;;;;;;12.00;12.00;;;;;36.03;27.25;101412.16;5064609;28;45365;-55
2022/06/18 08:07:34;;;;;;;;;13.00;12.00;;;;;36.35;26.01;101407.28;5062770;28;45482;-54
2022/06/18 08:10:00;;;;;;;;;11.67;11.67;;;;;36.69;26.26;101406.81;5048891;28;45389;-52
2022/06/18 08:12:25;;;;;;;;;12.33;12.33;;;;;37.10;25.56;101396.75;5054828;28;65346;-50
2022/06/18 08:14:50;;;;;;;;;13.00;13.00;;;;;37.51;25.82;101391.34;5058171;28;70338;-54
2022/06/18 08:17:16;;;;;;;;;11.00;11.00;;;;;37.90;24.82;101391.66;5052115;28;70132;-52
2022/06/18 08:19:41;;;;;;;;;20.67;13.67;;;;;38.31;23.70;101388.88;5062467;28;46571;-56
2022/06/18 08:22:06;;;;;;;;;11.33;11.00;;;;;38.72;23.94;101384.94;5066403;27;69942;-53
2022/06/18 08:24:32;;;;;;;;;13.00;13.00;;;;;39.14;23.52;101382.78;5068594;28;72466;-57
2022/06/18 08:26:58;;;;;;;;;11.67;11.33;;;;;39.54;23.18;101379.81;5081767;27;45401;-57
2022/06/18 08:29:24;;;;;;;;;13.50;13.50;;;;;39.91;22.39;101380.25;5057614;28;45553;-57
2022/06/18 08:31:50;;;;;;;;;13.33;12.00;;;;;40.28;21.31;101387.94;5066507;28;45861;-55
2022/06/18 08:34:15;;;;;;;;;12.33;11.00;;;;;40.60;21.29;101379.66;5063650;28;45548;-54
2022/06/18 08:36:41;;;;;;;;;10.67;10.67;;;;;40.93;21.06;101386.03;5065629;28;45318;-54
2022/06/18 08:39:07;;;;;;;;;9.33;8.00;;;;;41.31;20.80;101384.06;5054346;28;45415;-54
2022/06/18 08:42:03;;;;;;;;;9.67;9.67;;;;;41.75;19.74;101368.97;5061857;28;46778;-54
2022/06/18 08:44:41;;;;;;;;;16.33;13.67;;;;;42.23;20.24;101368.84;5057231;28;46265;-57
2022/06/18 08:47:23;;;;;;;;;9.00;9.00;;;;;42.49;19.39;101360.50;5057584;28;45173;-54
2022/06/18 08:49:51;;;;;;;;;11.33;11.33;;;;;42.76;18.65;101356.63;5049147;28;45368;-55
2022/06/18 08:52:22;;;;;;;;;10.67;9.33;;;;;42.98;18.07;101357.13;5059933;28;45537;-55
2022/06/18 08:54:57;;;;;;;;;11.33;10.33;;;;;43.03;18.02;101350.72;5054612;28;45410;-55
2022/06/18 08:57:25;;;;;;;;;8.67;8.67;;;;;43.15;17.39;101347.63;5058738;28;45352;-55
2022/06/18 09:00:03;;;;;;;;;13.33;12.33;;;;;43.21;17.55;101352.09;5058348;28;45317;-55
2022/06/18 09:02:47;;;;;;;;;9.33;9.33;;;;;43.42;17.35;101338.88;5056785;28;45469;-55
2022/06/18 09:05:49;;;;;;;;;11.00;10.67;;;;;43.84;17.56;101338.69;5049330;28;47122;-55
2022/06/18 09:08:33;;;;;;;;;12.00;12.00;;;;;44.11;16.09;101335.47;5072470;27;45699;-56
2022/06/18 09:11:15;;;;;;;;;10.33;10.00;;;;;44.12;16.31;101331.53;5056080;28;45535;-56
2022/06/18 09:13:45;;;;;;;;;12.67;12.33;;;;;44.35;16.84;101329.16;5062425;28;45400;-55
2022/06/18 09:16:14;;;;;;;;;9.33;9.33;;;;;44.73;16.64;101324.63;5064206;28;46163;-56
2022/06/18 09:18:47;;;;;;;;;14.00;13.00;;;;;45.02;15.35;101325.72;5058302;28;45914;-56
2022/06/18 09:21:21;;;;;;;;;9.33;9.33;;;;;45.33;16.24;101328.19;5054469;28;45537;-56
2022/06/18 09:23:54;;;;;;;;;11.00;10.00;;;;;45.69;16.05;101324.94;5075300;28;45275;-56
2022/06/18 09:26:24;;;;;;;;;9.00;9.00;;;;;46.02;15.10;101322.22;5066600;28;46924;-56
2022/06/18 09:29:02;;;;;;;;;9.33;9.33;;;;;46.21;14.72;101317.41;5063821;28;45285;-56
2022/06/18 09:31:50;;;;;;;;;7.00;7.00;;;;;46.34;13.11;101315.00;5057860;28;45370;-56
2022/06/18 09:34:25;;;;;;;;;9.33;9.33;;;;;46.22;13.79;101313.47;5050489;28;45318;-56
2022/06/18 09:36:59;;;;;;;;;9.00;9.00;;;;;46.44;14.27;101303.56;5064234;27;46655;-56
2022/06/18 09:39:32;;;;;;;;;9.67;8.00;;;;;46.69;14.27;101302.31;5060567;28;45334;-56
2022/06/18 09:42:04;;;;;;;;;10.33;9.00;;;;;46.73;13.57;101297.72;5057782;28;45533;-56
2022/06/18 09:44:51;;;;;;;;;11.00;11.00;;;;;46.88;13.80;101290.13;5059744;28;45575;-56
2022/06/18 09:47:25;;;;;;;;;7.00;7.00;;;;;46.89;13.17;101287.00;5059145;28;46318;-56
2022/06/18 09:49:50;;;;;;;;;9.33;8.67;;;;;46.97;13.82;101282.63;5071532;27;45443;-56
2022/06/18 09:52:34;;;;;;;;;8.00;8.00;;;;;47.18;13.50;101271.78;5056356;28;61229;-57
2022/06/18 09:55:10;;;;;;;;;6.00;4.67;;;;;47.41;13.04;101271.00;5059725;28;45323;-57
2022/06/18 09:57:39;;;;;;;;;9.00;8.00;;;;;47.51;13.33;101268.00;5070417;28;46321;-57
2022/06/18 10:00:13;;;;;;;;;8.00;8.00;;;;;47.47;12.69;101258.53;5058374;28;45398;-57
2022/06/18 10:02:56;;;;;;;;;8.00;8.00;;;;;47.34;11.94;101260.19;5058371;28;45748;-56
2022/06/18 10:08:11;;;;;;;;;8.00;7.00;;;;;47.43;12.80;101258.31;5078619;27;45427;-56
2022/06/18 10:10:42;;;;;;;;;22.00;18.00;;;;;47.67;15.49;101257.22;5057045;28;45469;-57
2022/06/18 10:13:14;;;;;;;;;9.00;9.00;;;;;47.16;13.04;101254.41;5058179;28;45701;-60
2022/06/18 10:15:40;;;;;;;;;8.67;8.00;;;;;46.27;12.57;101247.88;5053136;28;45572;-60
2022/06/18 10:18:39;;;;;;;;;8.00;7.00;;;;;45.28;13.54;101236.47;5059149;28;70183;-60
2022/06/18 10:21:19;;;;;;;;;8.00;7.33;;;;;44.54;13.35;101243.19;5057618;28;45256;-60
2022/06/18 10:23:57;;;;;;;;;7.67;7.67;;;;;43.95;13.99;101237.56;5052233;28;45393;-59
2022/06/18 10:26:34;;;;;;;;;9.00;9.00;;;;;43.36;14.71;101230.03;5081149;27;45453;-60
2022/06/18 10:29:17;;;;;;;;;12.33;11.00;;;;;42.87;14.34;101235.28;5056775;28;45464;-60
2022/06/18 10:32:01;;;;;;;;;6.00;6.00;;;;;42.29;14.89;101232.84;5062827;28;45394;-59
2022/06/18 10:34:39;;;;;;;;;10.00;10.00;;;;;41.92;15.68;101223.59;5057980;28;45366;-60
2022/06/18 10:37:35;;;;;;;;;11.00;11.00;;;;;41.64;15.75;101217.41;5050436;28;45705;-59
2022/06/18 10:40:38;;;;;;;;;11.00;11.00;;;;;41.33;16.34;101208.91;5054211;28;45365;-61
2022/06/18 10:43:35;;;;;;;;;11.67;11.67;;;;;41.15;15.94;101207.44;5046739;28;45433;-60
2022/06/18 10:46:02;;;;;;;;;11.00;11.00;;;;;41.06;16.57;101199.91;5080455;27;45413;-59
2022/06/18 10:48:31;;;;;;;;;12.33;12.00;;;;;40.97;16.05;101196.78;5059309;28;45594;-60
2022/06/18 10:50:58;;;;;;;;;13.67;11.67;;;;;40.77;16.54;101198.34;5054437;28;46961;-60
2022/06/18 10:53:27;;;;;;;;;12.33;11.33;;;;;40.67;16.38;101195.50;5056772;27;45333;-59
2022/06/18 10:56:02;;;;;;;;;13.00;12.00;;;;;40.65;16.56;101189.34;5053351;28;45555;-60
2022/06/18 10:58:29;;;;;;;;;9.33;9.33;;;;;40.60;16.26;101190.16;5041386;28;45367;-59
2022/06/18 11:00:59;;;;;;;;;18.00;13.00;;;;;40.45;16.23;101190.88;5060793;27;45555;-59
2022/06/18 11:03:29;;;;;;;;;11.67;9.33;;;;;40.12;15.86;101184.50;5060733;28;45284;-59
2022/06/18 11:05:54;;;;;;;;;12.33;10.67;;;;;39.86;16.97;101181.47;5053148;28;45388;-59
2022/06/18 11:08:29;;;;;;;;;11.00;9.00;;;;;39.77;16.64;101177.50;5056436;28;66315;-59
2022/06/18 11:11:06;;;;;;;;;8.67;8.67;;;;;39.75;16.82;101176.09;5057425;28;46015;-59
2022/06/18 11:13:37;;;;;;;;;12.00;8.00;;;;;39.74;16.86;101172.47;5054034;28;45425;-59
2022/06/18 11:16:12;;;;;;;;;13.00;11.67;;;;;39.83;16.55;101170.03;5053993;28;45592;-58
2022/06/18 11:18:51;;;;;;;;;13.00;11.33;;;;;39.90;16.71;101167.88;5058349;28;46386;-59
2022/06/18 11:21:33;;;;;;;;;12.00;11.33;;;;;39.96;17.26;101164.03;5061095;28;46584;-59
2022/06/18 11:24:05;;;;;;;;;9.33;9.33;;;;;40.03;17.52;101155.44;5057983;28;45455;-58
2022/06/18 11:26:31;;;;;;;;;10.67;10.00;;;;;40.07;17.13;101147.41;5054652;28;45344;-59
2022/06/18 11:29:01;;;;;;;;;10.33;9.00;;;;;40.26;16.83;101151.47;5051518;28;45836;-59
2022/06/18 11:31:34;;;;;;;;;9.67;9.67;;;;;40.44;16.91;101141.00;5051254;28;47150;-59
2022/06/18 11:34:05;;;;;;;;;11.33;11.33;;;;;40.68;16.26;101139.47;5035945;28;45505;-59
2022/06/18 11:36:47;;;;;;;;;11.67;10.00;;;;;41.04;16.48;101133.22;5047097;28;45694;-59